Terminal Aerodrome Forecast
Issued by NWS Cheyenne, WY

Home | Current Version | Previous Version | Text Only | Print | Product List | Glossary On
Versions: 1 2 3 4 5 6 7 8 9 10 11 12 13 14 15 16 17 18 19 20 21 22 23 24 25 26 27 28 29 30 31 32 33 34 35 36 37 38
000
FTUS45 KCYS 281142
TAFCYS
TAF
KCYS 281142Z 2812/0112 31011KT P6SM OVC110
     FM281400 28014KT P6SM SCT140
     FM281700 30017G28KT P6SM BKN080
     FM010700 29024G35KT P6SM SCT150=

USA.gov is the U.S. government's official web portal to all federal, state and local government web resources and services.